createdAt,value
2022-09-09T00:03:08.731Z,98245.22
2022-09-09T00:08:40.103Z,98239.22
2022-09-09T00:14:09.255Z,98237.94
2022-09-09T00:19:41.029Z,98234.22
2022-09-09T00:25:12.320Z,98233.66
2022-09-09T00:30:36.115Z,98236.16
2022-09-09T00:35:59.571Z,98228.78
2022-09-09T00:41:23.729Z,98230.88
2022-09-09T00:46:58.859Z,98215.69
2022-09-09T00:52:53.346Z,98232.81
2022-09-09T00:58:15.209Z,98231.28
2022-09-09T01:03:59.829Z,98228.94
2022-09-09T01:09:46.887Z,98223.88
2022-09-09T01:15:18.841Z,98224.16
2022-09-09T01:20:47.082Z,98206.63
2022-09-09T01:26:15.625Z,98234.47
2022-09-09T01:31:43.803Z,98246.16
2022-09-09T01:37:11.312Z,98250.31
2022-09-09T01:42:33.075Z,98240.00
2022-09-09T01:47:54.776Z,98239.31
2022-09-09T01:53:19.061Z,98235.84
2022-09-09T01:58:58.994Z,98228.91
2022-09-09T02:04:39.751Z,98231.84
2022-09-09T02:10:30.674Z,98217.34
2022-09-09T02:15:52.356Z,98231.44
2022-09-09T02:21:15.786Z,98243.97
2022-09-09T02:26:41.944Z,98247.03
2022-09-09T02:32:09.005Z,98237.28
2022-09-09T02:37:37.493Z,98261.78
2022-09-09T02:43:00.997Z,98246.06
2022-09-09T02:48:31.122Z,98243.84
2022-09-09T02:54:27.852Z,98240.19
2022-09-09T02:59:50.823Z,98239.34
2022-09-09T03:05:14.034Z,98238.09
2022-09-09T03:10:36.199Z,98214.38
2022-09-09T03:15:57.971Z,98224.91
2022-09-09T03:21:19.736Z,98231.72
2022-09-09T03:26:42.464Z,98224.75
2022-09-09T03:32:04.469Z,98222.00
2022-09-09T03:37:26.261Z,98222.00
2022-09-09T03:42:49.047Z,98215.91
2022-09-09T03:48:12.895Z,98221.03
2022-09-09T03:53:35.290Z,98211.44
2022-09-09T03:58:57.014Z,98216.00
2022-09-09T04:04:18.708Z,98215.16
2022-09-09T04:09:40.461Z,98223.81
2022-09-09T04:15:03.070Z,98216.28
2022-09-09T04:20:24.886Z,98222.09
2022-09-09T04:25:48.020Z,98226.94
2022-09-09T04:31:19.616Z,98236.28
2022-09-09T04:36:41.475Z,98239.91
2022-09-09T04:42:04.177Z,98247.13
2022-09-09T04:47:25.949Z,98249.81
2022-09-09T04:52:47.737Z,98246.22
2022-09-09T04:58:09.596Z,98250.25
2022-09-09T05:03:31.345Z,98254.41
2022-09-09T05:08:53.582Z,98258.97
2022-09-09T05:14:15.919Z,98262.06
2022-09-09T05:19:37.753Z,98258.84
2022-09-09T05:24:59.505Z,98256.91
2022-09-09T05:30:23.645Z,98259.97
2022-09-09T05:35:45.476Z,98269.59
2022-09-09T05:41:08.338Z,98263.03
2022-09-09T05:46:30.297Z,98274.56
2022-09-09T05:51:52.256Z,98268.16
2022-09-09T05:57:14.175Z,98268.72
2022-09-09T06:02:38.191Z,98271.22
2022-09-09T06:07:59.947Z,98278.41
2022-09-09T06:13:21.639Z,98273.69
2022-09-09T06:18:44.504Z,98266.00
2022-09-09T06:24:08.270Z,98275.72
2022-09-09T06:29:29.991Z,98280.59
2022-09-09T06:34:51.765Z,98279.66
2022-09-09T06:40:13.528Z,98289.81
2022-09-09T06:45:37.568Z,98281.44
2022-09-09T06:51:14.764Z,98286.13
2022-09-09T06:56:38.637Z,98281.78
2022-09-09T07:02:00.498Z,98286.81
2022-09-09T07:07:22.283Z,98285.56
2022-09-09T07:12:44.051Z,98290.41
2022-09-09T07:18:06.328Z,98290.81
2022-09-09T07:23:28.044Z,98290.94
2022-09-09T07:28:50.696Z,98289.06
2022-09-09T07:34:12.481Z,98292.00
2022-09-09T07:39:34.530Z,98293.78
2022-09-09T07:44:56.281Z,98278.97
2022-09-09T07:50:18.052Z,98288.94
2022-09-09T07:55:40.015Z,98292.72
2022-09-09T08:01:07.992Z,98296.81
2022-09-09T08:06:34.060Z,98302.94
2022-09-09T08:11:57.414Z,98302.63
2022-09-09T08:17:19.087Z,98300.22
2022-09-09T08:22:41.135Z,98293.75
2022-09-09T08:28:04.215Z,98309.25
2022-09-09T08:33:26.575Z,98324.19
2022-09-09T08:38:51.275Z,98309.34
2022-09-09T08:44:24.328Z,98305.88
2022-09-09T08:49:57.105Z,98303.13
2022-09-09T08:55:28.935Z,98308.84
2022-09-09T09:01:09.215Z,98300.16
2022-09-09T09:06:50.950Z,98294.63
2022-09-09T09:12:25.230Z,98297.63
2022-09-09T09:17:47.071Z,98298.78
2022-09-09T09:23:20.457Z,98304.63
2022-09-09T09:28:42.225Z,98297.72
2022-09-09T09:34:04.078Z,98331.59
2022-09-09T09:45:36.318Z,98316.38
2022-09-09T09:51:01.614Z,98299.81
2022-09-09T09:56:30.055Z,98291.25
2022-09-09T10:01:51.969Z,98269.09
2022-09-09T10:07:20.775Z,98269.09
2022-09-09T10:12:51.327Z,98276.94
2022-09-09T10:18:34.064Z,98268.22
2022-09-09T10:24:14.321Z,98261.84
2022-09-09T10:29:44.952Z,98256.59
2022-09-09T10:35:25.145Z,98257.28
2022-09-09T10:40:52.370Z,98254.22
2022-09-09T10:46:31.037Z,98258.06
2022-09-09T10:52:07.815Z,98256.91
2022-09-09T10:57:32.928Z,98261.22
2022-09-09T11:03:01.517Z,98252.25
2022-09-09T11:08:29.722Z,98248.78
2022-09-09T11:14:15.894Z,98239.97
2022-09-09T11:19:44.581Z,98255.41
2022-09-09T11:25:16.991Z,98283.72
2022-09-09T11:30:57.583Z,98291.25
2022-09-09T11:36:39.099Z,98286.03
2022-09-09T11:42:21.419Z,98298.75
2022-09-09T11:47:53.445Z,98299.88
2022-09-09T11:53:15.103Z,98295.78
2022-09-09T11:58:54.389Z,98289.66
2022-09-09T12:04:28.863Z,98289.56
2022-09-09T12:09:57.610Z,98289.38
2022-09-09T12:15:23.928Z,98281.28
2022-09-09T12:21:30.580Z,98280.91
2022-09-09T12:27:08.086Z,98274.03
2022-09-09T12:32:31.020Z,98260.38
2022-09-09T12:38:04.234Z,98251.13
2022-09-09T12:43:27.491Z,98249.16
2022-09-09T12:48:49.313Z,98254.44
2022-09-09T12:54:15.403Z,98246.78
2022-09-09T12:59:43.037Z,98240.78
2022-09-09T13:05:17.330Z,98224.84
2022-09-09T13:10:54.545Z,98222.50
2022-09-09T13:16:32.568Z,98222.53
2022-09-09T13:21:55.004Z,98210.25
2022-09-09T13:27:30.383Z,98219.38
2022-09-09T13:33:04.808Z,98210.91
2022-09-09T13:38:29.509Z,98205.59
2022-09-09T13:43:53.057Z,98199.28
2022-09-09T13:49:18.104Z,98193.13
2022-09-09T13:54:40.600Z,98193.13
2022-09-09T14:00:06.359Z,98193.78
2022-09-09T14:05:30.644Z,98198.13
2022-09-09T14:10:53.301Z,98192.31
2022-09-09T14:16:15.037Z,98199.94
2022-09-09T14:21:36.754Z,98176.63
2022-09-09T14:26:58.479Z,98179.50
2022-09-09T14:32:20.466Z,98185.28
2022-09-09T14:37:42.184Z,98185.13
2022-09-09T14:43:05.752Z,98180.31
2022-09-09T14:48:27.448Z,98179.34
2022-09-09T14:53:53.017Z,98177.31
2022-09-09T14:59:14.726Z,98175.34
2022-09-09T15:04:36.486Z,98193.31
2022-09-09T15:09:58.608Z,98193.47
2022-09-09T15:15:20.378Z,98192.63
2022-09-09T15:20:47.200Z,98192.94
2022-09-09T15:26:10.451Z,98194.63
2022-09-09T15:31:33.080Z,98198.75
2022-09-09T15:36:56.446Z,98190.97
2022-09-09T15:42:18.171Z,98191.97
2022-09-09T15:47:40.421Z,98192.66
2022-09-09T15:53:02.157Z,98199.13
2022-09-09T15:58:23.926Z,98198.94
2022-09-09T16:03:47.671Z,98198.94
2022-09-09T16:09:10.925Z,98192.47
2022-09-09T16:14:36.604Z,98209.44
2022-09-09T16:19:58.591Z,98224.38
2022-09-09T16:25:21.419Z,98214.91
2022-09-09T16:30:43.145Z,98232.34
2022-09-09T16:36:09.767Z,98241.97
2022-09-09T16:41:32.491Z,98265.03
2022-09-09T16:47:00.240Z,98268.16
2022-09-09T16:52:22.554Z,98278.06
2022-09-09T16:57:44.291Z,98279.50
2022-09-09T17:03:06.147Z,98286.03
2022-09-09T17:08:27.899Z,98276.69
2022-09-09T17:13:50.466Z,98284.31
2022-09-09T17:19:13.672Z,98289.44
2022-09-09T17:24:36.385Z,98284.91
2022-09-09T17:29:59.292Z,98280.38
2022-09-09T17:35:21.158Z,98282.97
2022-09-09T17:40:43.720Z,98284.41
2022-09-09T17:46:17.293Z,98304.94
2022-09-09T17:51:39.463Z,98311.50
2022-09-09T17:57:01.636Z,98310.34
2022-09-09T18:02:23.444Z,98310.72
2022-09-09T18:07:45.437Z,98307.19
2022-09-09T18:13:09.956Z,98308.34
2022-09-09T18:18:31.672Z,98322.09
2022-09-09T18:23:53.666Z,98323.16
2022-09-09T18:29:25.268Z,98335.88
2022-09-09T18:34:47.118Z,98341.53
2022-09-09T18:40:08.878Z,98341.75
2022-09-09T18:45:30.608Z,98347.81
2022-09-09T18:50:52.671Z,98365.28
2022-09-09T18:56:14.454Z,98359.09
2022-09-09T19:01:36.373Z,98357.34
2022-09-09T19:06:58.894Z,98357.66
2022-09-09T19:12:20.955Z,98355.75
2022-09-09T19:17:42.790Z,98351.31
2022-09-09T19:23:05.424Z,98364.44
2022-09-09T19:28:27.512Z,98360.03
2022-09-09T19:33:50.801Z,98372.59
2022-09-09T19:39:14.072Z,98375.63
2022-09-09T19:44:35.847Z,98371.72
2022-09-09T19:49:57.577Z,98376.66
2022-09-09T19:55:19.983Z,98380.72
2022-09-09T20:00:41.817Z,98388.13
2022-09-09T20:06:08.538Z,98391.47
2022-09-09T20:11:30.498Z,98395.69
2022-09-09T20:16:52.404Z,98394.28
2022-09-09T20:22:14.539Z,98407.50
2022-09-09T20:27:36.208Z,98406.94
2022-09-09T20:32:57.928Z,98406.66
2022-09-09T20:38:19.620Z,98410.00
2022-09-09T20:43:49.458Z,98419.69
2022-09-09T20:49:11.624Z,98426.25
2022-09-09T20:54:35.143Z,98422.59
2022-09-09T20:59:56.965Z,98424.38
2022-09-09T21:05:23.944Z,98423.97
2022-09-09T21:10:46.938Z,98423.66
2022-09-09T21:16:13.804Z,98423.00
2022-09-09T21:21:36.240Z,98413.97
2022-09-09T21:26:59.498Z,98426.69
2022-09-09T21:32:21.386Z,98426.78
2022-09-09T21:37:43.138Z,98430.84
2022-09-09T21:43:06.143Z,98426.09
2022-09-09T21:48:27.997Z,98425.97
2022-09-09T21:53:49.844Z,98428.31
2022-09-09T21:59:12.053Z,98427.09
2022-09-09T22:04:36.638Z,98426.78
2022-09-09T22:09:58.458Z,98425.13
2022-09-09T22:15:20.579Z,98418.19
2022-09-09T22:20:45.036Z,98414.56
2022-09-09T22:26:07.253Z,98426.25
2022-09-09T22:31:29.166Z,98417.31
2022-09-09T22:36:51.076Z,98416.50
2022-09-09T22:42:13.701Z,98420.53
2022-09-09T22:47:35.623Z,98430.13
2022-09-09T22:52:57.354Z,98438.63
2022-09-09T22:58:19.052Z,98446.56
2022-09-09T23:03:42.128Z,98455.06
2022-09-09T23:09:04.118Z,98468.56
2022-09-09T23:14:26.117Z,98469.97
2022-09-09T23:19:56.981Z,98472.03
2022-09-09T23:25:18.822Z,98461.06
2022-09-09T23:30:42.054Z,98470.28
2022-09-09T23:36:08.376Z,98459.59
2022-09-09T23:41:30.959Z,98461.31
2022-09-09T23:46:52.639Z,98468.44
2022-09-09T23:52:14.669Z,98460.41
2022-09-09T23:57:36.502Z,98458.16
